Time;durP1;ratioP1;P1;durP2;ratioP2;P2;SDS_P1;SDS_P2;PMS_P1;PMS_P2;Temp;Humidity;BMP_temperature;BMP_pressure;BME280_temperature;BME280_humidity;BME280_pressure;Samples;Min_cycle;Max_cycle;Signal;HPM_P1;HPM_P2
2021/09/03 00:01:59;;;;;;;4.00;3.08;;;;;;;26.37;41.99;95608.41;5009361;28;20459;-75
2021/09/03 00:04:25;;;;;;;4.47;3.03;;;;;;;26.38;42.03;95607.13;5008048;28;20034;-75
2021/09/03 00:06:50;;;;;;;4.20;3.15;;;;;;;26.36;42.19;95601.44;4991609;28;20481;-75
2021/09/03 00:09:15;;;;;;;4.13;3.15;;;;;;;26.34;42.22;95598.50;5018449;28;20029;-75
2021/09/03 00:11:41;;;;;;;4.43;3.13;;;;;;;26.32;42.33;95590.78;5028469;28;20472;-75
2021/09/03 00:14:06;;;;;;;3.50;2.70;;;;;;;26.34;42.28;95593.75;5027359;28;20017;-76
2021/09/03 00:16:32;;;;;;;3.92;3.00;;;;;;;26.34;42.25;95593.00;5028537;28;20096;-75
2021/09/03 00:18:57;;;;;;;4.82;2.90;;;;;;;26.28;42.37;95578.63;5027533;28;20388;-75
2021/09/03 00:21:22;;;;;;;4.47;3.10;;;;;;;26.33;42.37;95591.53;5028805;28;20546;-75
2021/09/03 00:23:48;;;;;;;3.90;3.00;;;;;;;26.32;42.25;95584.56;5004497;28;20052;-76
2021/09/03 00:26:13;;;;;;;4.07;2.97;;;;;;;26.31;42.06;95583.09;5008469;28;20030;-75
2021/09/03 00:28:39;;;;;;;4.63;2.97;;;;;;;26.30;42.40;95581.59;4989891;28;20037;-75
2021/09/03 00:31:04;;;;;;;3.28;2.53;;;;;;;26.31;42.21;95583.09;5008276;28;20034;-76
2021/09/03 00:33:30;;;;;;;3.40;2.97;;;;;;;26.31;42.51;95577.59;5008269;28;20084;-76
2021/09/03 00:35:55;;;;;;;5.18;3.35;;;;;;;26.31;42.16;95572.13;5008819;28;20034;-75
2021/09/03 00:38:20;;;;;;;3.95;3.00;;;;;;;26.28;42.28;95578.63;5009568;28;20029;-75
2021/09/03 00:40:46;;;;;;;4.93;2.72;;;;;;;26.28;42.19;95567.69;5010627;28;20417;-75
2021/09/03 00:43:11;;;;;;;4.38;2.85;;;;;;;26.27;42.39;95565.44;5026661;28;20030;-73
2021/09/03 00:45:37;;;;;;;3.85;2.90;;;;;;;26.24;42.20;95572.66;5028434;28;20066;-74
2021/09/03 00:48:02;;;;;;;3.78;2.50;;;;;;;26.26;42.37;95564.66;5027478;28;20030;-75
2021/09/03 00:50:28;;;;;;;3.85;2.80;;;;;;;26.23;42.03;95565.69;5011186;28;20036;-75
2021/09/03 00:52:53;;;;;;;4.20;3.10;;;;;;;26.26;42.38;95570.16;5026810;28;20471;-75
2021/09/03 00:55:18;;;;;;;3.40;2.47;;;;;;;26.26;42.06;95564.66;5010748;28;20543;-75
2021/09/03 00:57:44;;;;;;;4.32;3.00;;;;;;;26.26;42.42;95564.66;5026398;28;20531;-75
2021/09/03 01:00:10;;;;;;;4.13;2.65;;;;;;;26.25;42.30;95557.72;5010361;28;20026;-75
2021/09/03 01:02:35;;;;;;;3.70;2.50;;;;;;;26.25;42.01;95563.22;5025933;28;20061;-76
2021/09/03 01:05:01;;;;;;;4.30;2.85;;;;;;;26.24;42.67;95561.72;5009481;28;20036;-75
2021/09/03 01:07:26;;;;;;;4.22;3.05;;;;;;;26.20;42.23;95561.25;4989852;28;20048;-75
2021/09/03 01:09:52;;;;;;;3.80;2.70;;;;;;;26.23;42.25;95565.69;5007219;28;20041;-75
2021/09/03 01:12:17;;;;;;;3.83;3.22;;;;;;;26.24;42.01;95567.19;5007532;28;20046;-76
2021/09/03 01:14:43;;;;;;;4.32;2.95;;;;;;;26.25;42.25;95557.72;5020732;28;20030;-75
2021/09/03 01:17:08;;;;;;;3.47;2.75;;;;;;;26.24;42.08;95567.19;5017010;28;20274;-75
2021/09/03 01:19:34;;;;;;;3.88;2.70;;;;;;;26.21;42.05;95557.25;5005456;28;20120;-75
2021/09/03 01:21:59;;;;;;;3.80;2.38;;;;;;;26.21;42.17;95562.75;5008390;28;20037;-75
2021/09/03 01:24:25;;;;;;;3.45;2.70;;;;;;;26.23;42.14;95560.22;5012584;28;20128;-75
2021/09/03 01:26:50;;;;;;;4.40;2.30;;;;;;;26.22;42.32;95553.28;5007580;28;20026;-74
2021/09/03 01:29:16;;;;;;;3.45;2.85;;;;;;;26.22;41.92;95541.56;5006622;28;20039;-75
2021/09/03 01:31:41;;;;;;;3.40;2.80;;;;;;;26.22;42.08;95547.81;5008079;28;20064;-74
2021/09/03 01:34:07;;;;;;;3.58;2.53;;;;;;;26.21;42.19;95540.84;5007143;28;20072;-75
2021/09/03 01:36:32;;;;;;;5.00;2.72;;;;;;;26.22;42.29;95541.56;5007055;28;20519;-76
2021/09/03 01:38:58;;;;;;;3.65;2.70;;;;;;;26.20;42.32;95539.34;5007125;28;20034;-73
2021/09/03 01:41:24;;;;;;;4.68;2.53;;;;;;;26.19;42.60;95526.94;4989544;28;20034;-75
2021/09/03 01:43:49;;;;;;;3.25;2.55;;;;;;;26.17;42.17;95532.16;5010100;28;20040;-75
2021/09/03 01:46:15;;;;;;;3.58;2.60;;;;;;;26.19;42.37;95526.94;4989824;28;20040;-75
2021/09/03 01:48:40;;;;;;;3.15;2.50;;;;;;;26.20;42.07;95533.88;5006365;28;20113;-75
2021/09/03 01:51:06;;;;;;;3.92;2.90;;;;;;;26.19;42.30;95537.88;5006674;28;20033;-76
2021/09/03 01:53:31;;;;;;;3.80;2.55;;;;;;;26.17;42.10;95529.44;5006649;28;20087;-75
2021/09/03 01:55:56;;;;;;;4.63;2.75;;;;;;;26.18;42.55;95525.44;5005430;28;20087;-75
2021/09/03 01:58:22;;;;;;;3.60;2.40;;;;;;;26.14;42.55;95530.47;5026764;28;20036;-75
2021/09/03 02:00:47;;;;;;;3.45;2.47;;;;;;;26.16;42.41;95527.97;5011066;28;20061;-76
2021/09/03 02:03:14;;;;;;;3.45;2.40;;;;;;;26.16;42.55;95527.19;5006532;28;20424;-75
2021/09/03 02:05:40;;;;;;;5.13;2.60;;;;;;;26.16;42.12;95521.72;5006939;28;20037;-75
2021/09/03 02:08:06;;;;;;;3.53;2.50;;;;;;;26.16;42.63;95519.75;5006097;28;20045;-75
2021/09/03 02:10:31;;;;;;;3.03;2.28;;;;;;;26.17;42.37;95517.75;5007030;28;20088;-75
2021/09/03 02:12:57;;;;;;;3.20;2.40;;;;;;;26.17;42.47;95512.28;5008788;28;20050;-75
2021/09/03 02:15:22;;;;;;;4.35;2.50;;;;;;;26.17;42.22;95513.00;5006923;28;20103;-76
2021/09/03 02:17:48;;;;;;;3.58;2.55;;;;;;;26.16;41.92;95505.31;5008445;28;20368;-75
2021/09/03 02:20:14;;;;;;;3.33;2.47;;;;;;;26.15;42.03;95499.09;5026493;28;20112;-75
2021/09/03 02:22:39;;;;;;;3.75;2.50;;;;;;;26.13;42.56;95501.63;5024622;28;20606;-75
2021/09/03 02:25:05;;;;;;;3.47;2.70;;;;;;;26.14;42.22;95503.06;5026338;28;20041;-76
2021/09/03 02:27:30;;;;;;;3.55;2.55;;;;;;;26.14;42.14;95492.13;5025570;28;20025;-76
2021/09/03 02:29:56;;;;;;;3.08;2.35;;;;;;;26.13;42.19;95490.66;5008279;28;20123;-76
2021/09/03 02:32:21;;;;;;;3.63;2.53;;;;;;;26.13;42.00;95485.19;5006258;28;20033;-76
2021/09/03 02:34:47;;;;;;;3.10;2.28;;;;;;;26.12;42.03;95489.19;5020619;28;20043;-75
2021/09/03 02:37:13;;;;;;;3.40;2.28;;;;;;;26.12;42.52;95494.66;5025079;28;20034;-75
2021/09/03 02:39:39;;;;;;;2.97;2.40;;;;;;;26.11;42.01;95498.63;5023186;28;20094;-76
2021/09/03 02:42:04;;;;;;;3.47;2.20;;;;;;;26.13;42.47;95487.94;5007671;28;20033;-75
2021/09/03 02:44:29;;;;;;;3.47;2.28;;;;;;;26.11;42.02;95482.22;5024204;28;20109;-75
2021/09/03 02:46:55;;;;;;;3.65;2.30;;;;;;;26.11;42.52;95487.69;5008124;28;20033;-76
2021/09/03 02:49:20;;;;;;;2.72;2.20;;;;;;;26.11;42.13;95504.09;5006491;28;20017;-75
2021/09/03 02:51:46;;;;;;;3.20;2.30;;;;;;;26.10;42.04;95496.41;5025829;28;20037;-75
2021/09/03 02:54:11;;;;;;;2.97;2.10;;;;;;;26.10;42.67;95496.41;5006642;28;20048;-75
2021/09/03 02:56:36;;;;;;;3.20;2.20;;;;;;;26.10;42.52;95502.66;5007723;28;20041;-75
2021/09/03 02:59:02;;;;;;;3.25;2.50;;;;;;;26.10;42.39;95486.22;5024372;28;20048;-75
2021/09/03 03:01:27;;;;;;;3.08;2.05;;;;;;;26.09;42.26;95495.69;5008017;28;20037;-75
2021/09/03 03:03:53;;;;;;;3.50;2.05;;;;;;;26.09;42.49;95495.69;5024306;28;20087;-75
2021/09/03 03:06:18;;;;;;;3.38;2.38;;;;;;;26.08;42.63;95499.66;5024375;28;20022;-76
2021/09/03 03:08:44;;;;;;;2.97;2.20;;;;;;;26.06;41.95;95496.72;5025264;28;20034;-75
2021/09/03 03:11:09;;;;;;;3.22;2.25;;;;;;;26.08;42.08;95499.66;5002887;28;20120;-75
2021/09/03 03:13:34;;;;;;;3.75;2.40;;;;;;;26.08;42.37;95491.44;4988168;28;20061;-75
2021/09/03 03:16:00;;;;;;;4.10;2.40;;;;;;;26.07;42.65;95498.19;5002870;28;20037;-75
2021/09/03 03:18:25;;;;;;;2.97;2.10;;;;;;;26.07;42.02;95494.69;5005942;28;20849;-75
2021/09/03 03:20:51;;;;;;;3.00;2.10;;;;;;;26.06;42.40;95496.72;5005440;28;20034;-74
2021/09/03 03:23:17;;;;;;;2.50;2.00;;;;;;;26.06;42.16;95496.72;5009671;28;20112;-75
2021/09/03 03:25:42;;;;;;;4.00;2.60;;;;;;;26.07;42.54;95498.19;5007900;28;20034;-76
2021/09/03 03:28:08;;;;;;;2.97;2.10;;;;;;;26.05;42.01;95495.25;5016977;28;20492;-75
2021/09/03 03:30:33;;;;;;;3.60;2.28;;;;;;;26.05;42.73;95500.72;5011077;28;20018;-75
2021/09/03 03:33:00;;;;;;;3.05;2.13;;;;;;;26.05;42.71;95495.25;5025086;28;20047;-75
2021/09/03 03:35:25;;;;;;;3.63;2.55;;;;;;;26.05;42.46;95500.72;5025198;28;20500;-76
2021/09/03 03:37:51;;;;;;;3.33;2.38;;;;;;;26.05;42.67;95500.72;5011802;28;20053;-75
2021/09/03 03:40:17;;;;;;;3.28;2.30;;;;;;;26.05;42.69;95508.94;5005159;28;20041;-75
2021/09/03 03:42:42;;;;;;;3.92;2.05;;;;;;;26.04;42.01;95521.13;5023782;28;20423;-76
2021/09/03 03:45:08;;;;;;;3.30;2.20;;;;;;;26.06;42.13;95528.81;5023588;28;20510;-76
2021/09/03 03:47:33;;;;;;;3.17;2.20;;;;;;;26.04;41.97;95532.06;5025055;28;20033;-75
2021/09/03 03:49:59;;;;;;;3.88;2.67;;;;;;;26.02;42.32;95531.84;5012468;28;20053;-75
2021/09/03 03:52:24;;;;;;;3.25;2.00;;;;;;;26.03;42.13;95529.84;5005408;28;20037;-75
2021/09/03 03:54:50;;;;;;;3.50;2.25;;;;;;;26.02;42.53;95522.88;5003933;28;20034;-76
2021/09/03 03:57:15;;;;;;;3.03;2.40;;;;;;;26.03;41.98;95525.09;5005172;28;20096;-75
2021/09/03 03:59:41;;;;;;;2.60;1.90;;;;;;;26.02;42.31;95523.66;5003768;28;20046;-75
2021/09/03 04:02:07;;;;;;;3.20;2.20;;;;;;;26.02;42.27;95540.06;5021000;28;20033;-76
2021/09/03 04:04:32;;;;;;;3.13;2.28;;;;;;;26.03;42.16;95543.53;5010295;28;20034;-75
2021/09/03 04:06:59;;;;;;;3.33;2.22;;;;;;;25.97;42.22;95538.13;5004711;28;20033;-76
2021/09/03 04:09:24;;;;;;;2.83;2.03;;;;;;;25.98;42.20;95534.13;4998024;28;20033;-76
2021/09/03 04:11:50;;;;;;;3.30;2.35;;;;;;;26.02;42.14;95553.75;5006830;28;20064;-75
2021/09/03 04:14:16;;;;;;;3.00;2.25;;;;;;;26.01;42.68;95546.78;5023563;28;20033;-76
2021/09/03 04:16:41;;;;;;;3.20;2.20;;;;;;;26.02;42.30;95559.22;5024913;28;20032;-75
2021/09/03 04:19:07;;;;;;;3.53;2.55;;;;;;;25.99;42.22;95552.03;5011656;28;20041;-75
2021/09/03 04:21:32;;;;;;;4.18;2.20;;;;;;;26.02;42.01;95544.78;5004698;28;20791;-76
2021/09/03 04:23:58;;;;;;;3.78;1.98;;;;;;;26.00;42.05;95553.50;5014706;28;20471;-75
2021/09/03 04:26:23;;;;;;;3.20;2.20;;;;;;;25.99;42.36;95535.63;5023420;28;20525;-75
2021/09/03 04:28:49;;;;;;;3.05;1.98;;;;;;;25.97;42.11;95549.06;5005760;28;20567;-75
2021/09/03 04:31:14;;;;;;;2.95;2.10;;;;;;;26.02;42.50;95550.25;5025097;28;20098;-75
2021/09/03 04:33:39;;;;;;;2.80;2.13;;;;;;;26.02;42.60;95545.53;5023023;28;20034;-75
2021/09/03 04:36:05;;;;;;;3.13;2.30;;;;;;;26.01;41.99;95544.06;5024447;28;20029;-76
2021/09/03 04:38:31;;;;;;;3.88;2.60;;;;;;;26.02;42.46;95534.59;5022601;28;20579;-75
2021/09/03 04:40:57;;;;;;;2.90;2.13;;;;;;;26.01;42.61;95540.59;5025662;28;20514;-74
2021/09/03 04:43:22;;;;;;;3.17;2.28;;;;;;;26.01;41.98;95544.06;5018033;28;20792;-75
2021/09/03 04:45:48;;;;;;;3.45;2.40;;;;;;;26.03;42.08;95541.53;5008617;28;20022;-75
2021/09/03 04:48:14;;;;;;;3.00;2.17;;;;;;;26.03;42.61;95544.28;4989346;28;20033;-76
2021/09/03 04:50:40;;;;;;;3.72;2.20;;;;;;;26.02;41.94;95540.06;5008370;28;20029;-75
2021/09/03 04:53:05;;;;;;;3.35;2.17;;;;;;;26.02;42.37;95550.25;5007409;28;20555;-76
2021/09/03 04:55:31;;;;;;;3.00;2.10;;;;;;;26.02;42.39;95533.84;5008558;28;20029;-74
2021/09/03 04:57:56;;;;;;;2.80;2.00;;;;;;;26.04;42.42;95528.59;5010539;28;20039;-75
2021/09/03 05:00:22;;;;;;;4.72;2.25;;;;;;;26.02;41.93;95540.06;5028021;28;20025;-75
2021/09/03 05:02:48;;;;;;;4.03;2.10;;;;;;;25.99;42.52;95530.16;5024417;28;20029;-75
2021/09/03 05:05:14;;;;;;;2.80;2.08;;;;;;;26.01;41.80;95533.09;4990732;28;20038;-75
2021/09/03 05:07:39;;;;;;;4.55;2.58;;;;;;;26.02;42.23;95531.84;4944014;28;20042;-75
2021/09/03 05:10:05;;;;;;;3.20;2.40;;;;;;;26.04;42.50;95531.34;5025000;28;20029;-75
2021/09/03 05:12:31;;;;;;;4.18;2.28;;;;;;;26.04;42.19;95526.59;5027029;28;20045;-75
2021/09/03 05:14:56;;;;;;;3.03;2.20;;;;;;;26.07;42.50;95525.56;5008904;28;20044;-74
2021/09/03 05:17:22;;;;;;;3.42;2.40;;;;;;;26.07;42.61;95525.56;4989976;28;20030;-76
2021/09/03 05:19:47;;;;;;;4.10;2.53;;;;;;;26.08;42.21;95531.78;5023324;28;20088;-76
2021/09/03 05:22:12;;;;;;;4.75;2.25;;;;;;;26.09;41.82;95534.00;5027235;28;20496;-75
2021/09/03 05:24:38;;;;;;;3.03;2.03;;;;;;;26.08;42.45;95540.72;5012124;28;20040;-75
2021/09/03 05:27:03;;;;;;;3.35;2.30;;;;;;;26.09;42.28;95534.00;5007761;28;20096;-75
2021/09/03 05:29:29;;;;;;;3.13;2.13;;;;;;;26.10;42.03;95546.44;5020021;28;20033;-75
2021/09/03 05:31:54;;;;;;;3.38;2.40;;;;;;;26.14;42.06;95541.41;5027619;28;20901;-75
2021/09/03 05:34:20;;;;;;;3.33;2.28;;;;;;;26.13;42.15;95539.94;5026004;28;20022;-75
2021/09/03 05:36:45;;;;;;;3.75;2.35;;;;;;;26.13;42.06;95545.41;5027183;28;20037;-75
2021/09/03 05:39:10;;;;;;;3.38;2.10;;;;;;;26.17;41.78;95545.13;5007855;28;20041;-75
2021/09/03 05:41:36;;;;;;;3.65;2.30;;;;;;;26.22;42.15;95547.03;5009483;28;20029;-75
2021/09/03 05:44:01;;;;;;;3.38;2.30;;;;;;;26.17;41.78;95551.31;5025667;28;20029;-75
2021/09/03 05:46:27;;;;;;;3.55;2.50;;;;;;;26.19;42.16;95548.84;5009578;28;20021;-75
2021/09/03 05:48:52;;;;;;;3.30;2.10;;;;;;;26.20;42.37;95552.31;5015568;28;20910;-75
2021/09/03 05:51:20;;;;;;;2.83;2.08;;;;;;;26.20;41.85;95552.31;5006616;28;20057;-75
2021/09/03 05:53:45;;;;;;;2.90;2.10;;;;;;;26.17;41.96;95551.31;5005407;28;20056;-75
2021/09/03 05:56:10;;;;;;;3.25;1.95;;;;;;;26.14;41.98;95541.41;5006306;28;20018;-75
2021/09/03 05:58:36;;;;;;;3.85;2.17;;;;;;;26.20;41.65;95550.31;5005637;28;20030;-76
2021/09/03 06:01:01;;;;;;;3.58;2.17;;;;;;;26.20;41.60;95550.31;5007371;28;20045;-75
2021/09/03 06:03:27;;;;;;;3.70;2.40;;;;;;;26.16;42.06;95527.19;5014109;28;20723;-75
2021/09/03 06:05:52;;;;;;;3.92;2.38;;;;;;;26.20;41.82;95560.53;5008945;28;20696;-75
2021/09/03 06:08:18;;;;;;;3.08;2.00;;;;;;;26.20;41.70;95555.78;5023694;28;20026;-75
2021/09/03 06:10:43;;;;;;;4.03;2.58;;;;;;;26.21;42.40;95556.53;5026661;28;20033;-75
2021/09/03 06:13:09;;;;;;;3.17;2.17;;;;;;;26.21;41.75;95557.25;5020466;28;20045;-75
2021/09/03 06:15:34;;;;;;;3.03;2.20;;;;;;;26.22;42.07;95553.28;5006910;28;20030;-75
2021/09/03 06:17:59;;;;;;;3.55;2.10;;;;;;;26.22;41.81;95550.53;5005968;28;20444;-75
2021/09/03 06:20:25;;;;;;;4.47;2.28;;;;;;;26.22;41.86;95553.28;5006904;28;20029;-75
2021/09/03 06:22:50;;;;;;;2.78;1.90;;;;;;;26.23;41.72;95548.53;5006085;28;20044;-75
2021/09/03 06:25:16;;;;;;;2.97;2.28;;;;;;;26.23;41.79;95552.00;5006971;28;20022;-75
2021/09/03 06:27:41;;;;;;;3.10;2.28;;;;;;;26.24;41.67;95561.72;5005501;28;20107;-75
2021/09/03 06:30:07;;;;;;;3.83;2.25;;;;;;;26.25;41.63;95546.78;5006399;28;20037;-75
2021/09/03 06:32:34;;;;;;;2.72;1.90;;;;;;;26.25;41.88;95546.78;5024961;28;20033;-75
2021/09/03 06:35:01;;;;;;;3.15;2.45;;;;;;;26.26;42.26;95548.25;5025509;28;20039;-75
2021/09/03 06:37:27;;;;;;;3.28;2.22;;;;;;;26.27;41.82;95549.72;5025668;28;20033;-74
2021/09/03 06:39:53;;;;;;;4.25;2.33;;;;;;;26.26;42.04;95545.50;5010378;28;20036;-75
2021/09/03 06:42:18;;;;;;;4.15;2.28;;;;;;;26.27;41.78;95545.00;5005887;28;20022;-75
2021/09/03 06:44:44;;;;;;;3.42;2.15;;;;;;;26.28;41.81;95543.03;5018045;28;20117;-75
2021/09/03 06:47:11;;;;;;;3.00;1.95;;;;;;;26.30;42.31;95554.22;5026058;28;20618;-75
2021/09/03 06:49:37;;;;;;;3.33;2.28;;;;;;;26.33;41.70;95553.19;5013129;28;20436;-75
2021/09/03 06:52:03;;;;;;;4.22;2.33;;;;;;;26.32;41.80;95546.22;5006210;28;20025;-74
2021/09/03 06:54:29;;;;;;;2.80;2.00;;;;;;;26.31;41.95;95555.69;5006237;28;20025;-74
2021/09/03 06:56:54;;;;;;;3.33;2.00;;;;;;;26.35;41.90;95556.13;5005857;28;20041;-75
2021/09/03 06:59:19;;;;;;;3.60;2.42;;;;;;;26.35;42.00;95561.59;5005838;28;20048;-75
2021/09/03 07:01:45;;;;;;;2.90;2.00;;;;;;;26.35;42.28;95556.13;4998787;28;20057;-75
2021/09/03 07:04:10;;;;;;;3.58;2.28;;;;;;;26.36;41.91;95557.63;5005323;28;20026;-75
2021/09/03 07:06:36;;;;;;;5.03;2.00;;;;;;;26.37;41.72;95554.38;4988694;28;20025;-75
2021/09/03 07:09:04;;;;;;;3.35;2.55;;;;;;;26.37;42.22;95548.91;5006689;28;20030;-75
2021/09/03 07:11:31;;;;;;;3.28;2.08;;;;;;;26.38;42.12;95552.38;5007553;28;20572;-75
2021/09/03 07:13:56;;;;;;;3.30;2.10;;;;;;;26.39;42.00;95542.91;5006340;28;20069;-75
2021/09/03 07:16:21;;;;;;;3.55;2.15;;;;;;;26.39;41.52;95540.88;5008299;28;20026;-75
2021/09/03 07:18:47;;;;;;;3.17;2.40;;;;;;;26.40;41.63;95552.59;5005017;28;20036;-74
2021/09/03 07:21:12;;;;;;;3.53;2.05;;;;;;;26.37;41.90;95537.22;5006051;28;20036;-75
2021/09/03 07:23:38;;;;;;;3.78;2.10;;;;;;;26.41;41.73;95549.34;5004858;28;20467;-75
2021/09/03 07:26:03;;;;;;;4.53;2.10;;;;;;;26.42;41.57;95561.03;5005579;28;20025;-74
2021/09/03 07:28:29;;;;;;;3.67;2.30;;;;;;;26.42;41.75;95555.56;5000433;28;20025;-75
2021/09/03 07:30:54;;;;;;;2.75;1.98;;;;;;;26.43;41.76;95557.06;5007380;28;20025;-75
2021/09/03 07:33:20;;;;;;;3.40;2.17;;;;;;;26.44;42.11;95547.56;5024846;28;20017;-73
2021/09/03 07:35:46;;;;;;;2.90;1.90;;;;;;;26.46;41.62;95553.28;5023725;28;20029;-75
2021/09/03 07:38:11;;;;;;;4.68;2.92;;;;;;;26.46;41.71;95550.53;5024688;28;20017;-75
2021/09/03 07:40:37;;;;;;;4.75;2.70;;;;;;;26.46;41.85;95556.03;5025399;28;20179;-75
2021/09/03 07:43:06;;;;;;;3.55;2.05;;;;;;;26.46;41.71;95561.50;5024735;28;20474;-75
2021/09/03 07:45:35;;;;;;;2.75;1.98;;;;;;;26.47;41.91;95568.44;5024021;28;20029;-75
2021/09/03 07:48:00;;;;;;;3.85;2.15;;;;;;;26.47;41.70;95557.47;5025058;28;20029;-75
2021/09/03 07:50:26;;;;;;;3.92;2.13;;;;;;;26.47;41.81;95574.69;5009523;28;20218;-75
2021/09/03 07:52:51;;;;;;;3.22;2.33;;;;;;;26.48;41.46;95559.72;5005278;28;20037;-75
2021/09/03 07:55:17;;;;;;;4.50;2.58;;;;;;;26.50;41.70;95550.97;5023927;28;20108;-76
2021/09/03 07:57:42;;;;;;;3.72;2.33;;;;;;;26.51;41.64;95557.94;5005813;28;20029;-75
2021/09/03 08:00:08;;;;;;;3.17;2.28;;;;;;;26.51;41.99;95546.97;5025004;28;20025;-76
2021/09/03 08:02:35;;;;;;;3.92;2.30;;;;;;;26.47;41.65;95541.81;5022963;28;20033;-76
2021/09/03 08:05:00;;;;;;;3.53;2.40;;;;;;;26.52;41.87;95540.25;5007444;28;20111;-76
2021/09/03 08:07:28;;;;;;;3.20;2.17;;;;;;;26.53;41.86;95544.47;4986923;28;20488;-76
2021/09/03 08:09:54;;;;;;;3.83;2.50;;;;;;;26.54;41.44;95535.00;5018472;28;20061;-76
2021/09/03 08:12:20;;;;;;;3.72;2.40;;;;;;;26.54;41.76;95524.03;5022920;28;20053;-76
2021/09/03 08:14:45;;;;;;;4.05;2.30;;;;;;;26.54;42.07;95524.03;5014358;28;20500;-76
2021/09/03 08:17:11;;;;;;;3.47;2.40;;;;;;;26.55;41.87;95514.56;5008367;28;20025;-75
2021/09/03 08:19:36;;;;;;;5.03;2.83;;;;;;;26.56;41.86;95510.56;5007464;28;20025;-75
2021/09/03 08:22:02;;;;;;;4.53;2.83;;;;;;;26.57;41.53;95509.31;5008968;28;20030;-76
2021/09/03 08:24:27;;;;;;;3.72;2.25;;;;;;;26.57;41.68;95512.03;5007542;28;20026;-76
2021/09/03 08:26:53;;;;;;;3.85;2.40;;;;;;;26.58;41.78;95510.78;5009041;28;20025;-75
2021/09/03 08:29:18;;;;;;;4.18;2.10;;;;;;;26.59;41.65;95509.50;5008347;28;20026;-75
2021/09/03 08:31:44;;;;;;;4.18;2.58;;;;;;;26.59;41.68;95504.03;5008737;28;20504;-76
2021/09/03 08:34:09;;;;;;;4.00;2.25;;;;;;;26.59;41.59;95499.31;5007449;28;20033;-75
2021/09/03 08:36:35;;;;;;;4.20;2.53;;;;;;;26.54;41.26;95491.91;5008427;28;20026;-75
2021/09/03 08:39:00;;;;;;;3.55;2.20;;;;;;;26.61;41.91;95496.06;5007539;28;20044;-76
2021/09/03 08:41:25;;;;;;;4.10;2.63;;;;;;;26.62;41.40;95492.03;5008833;28;20655;-76
2021/09/03 08:43:57;;;;;;;4.97;2.10;;;;;;;26.62;41.77;95481.06;5012704;28;20037;-75
2021/09/03 08:46:23;;;;;;;4.68;2.80;;;;;;;26.63;41.43;95488.06;5028471;28;20052;-75
2021/09/03 08:48:48;;;;;;;5.90;2.95;;;;;;;26.64;41.68;95490.28;5008424;28;20137;-74
2021/09/03 08:51:14;;;;;;;3.95;2.83;;;;;;;26.65;41.37;95480.03;4994525;28;20507;-75
2021/09/03 08:53:39;;;;;;;5.10;3.33;;;;;;;26.66;41.31;95492.50;5026455;28;20503;-76
2021/09/03 08:56:05;;;;;;;4.53;2.50;;;;;;;26.68;41.37;95484.47;5027908;28;20033;-76
2021/09/03 08:58:31;;;;;;;6.45;2.97;;;;;;;26.69;41.13;95475.00;5026208;28;20018;-75
2021/09/03 09:01:14;;;;;;;6.07;2.80;;;;;;;26.70;41.28;95471.75;5008122;28;20022;-75
2021/09/03 09:03:40;;;;;;;4.50;2.60;;;;;;;26.71;41.30;95480.69;5006692;28;20025;-76
2021/09/03 09:06:06;;;;;;;4.97;3.00;;;;;;;26.72;41.59;95473.97;5008227;28;20091;-75
2021/09/03 09:08:33;;;;;;;5.50;2.58;;;;;;;26.73;41.30;95475.47;4999780;28;20063;-76
2021/09/03 09:11:06;;;;;;;4.85;2.95;;;;;;;26.76;40.92;95479.91;5003525;28;20038;-76
2021/09/03 09:13:36;;;;;;;5.47;3.40;;;;;;;26.77;41.19;95471.16;5001098;28;20076;-75
2021/09/03 09:16:07;;;;;;;4.72;2.75;;;;;;;26.77;41.33;95471.91;5026140;28;20463;-75
2021/09/03 09:18:48;;;;;;;4.43;2.88;;;;;;;26.78;40.98;95473.34;5025754;28;20508;-76
2021/09/03 09:21:18;;;;;;;5.38;2.78;;;;;;;26.79;41.02;95480.31;5010039;28;20128;-75
2021/09/03 09:23:48;;;;;;;5.43;3.13;;;;;;;26.76;41.26;95475.16;5026311;28;20218;-75
2021/09/03 09:26:15;;;;;;;4.22;2.60;;;;;;;26.80;40.92;95465.38;5010074;28;20029;-76
2021/09/03 09:28:40;;;;;;;4.47;2.88;;;;;;;26.77;41.07;95458.19;5020847;28;20069;-75
2021/09/03 09:31:06;;;;;;;5.95;2.97;;;;;;;26.82;41.29;95462.84;4989979;28;20033;-76
2021/09/03 09:33:31;;;;;;;4.68;3.15;;;;;;;26.83;41.12;95469.81;5008231;28;20036;-76
2021/09/03 09:35:58;;;;;;;6.70;2.97;;;;;;;26.84;41.32;95465.78;5015394;28;20562;-76
2021/09/03 09:38:25;;;;;;;5.25;3.55;;;;;;;26.85;41.05;95456.31;4989377;28;20022;-76
2021/09/03 09:40:55;;;;;;;5.22;2.97;;;;;;;26.84;41.12;95454.09;5025762;28;20033;-75
2021/09/03 09:43:35;;;;;;;5.30;2.83;;;;;;;26.87;40.95;95459.28;5009454;28;20516;-76
2021/09/03 09:46:07;;;;;;;4.35;2.85;;;;;;;26.89;41.20;95456.78;5024738;28;20116;-75
2021/09/03 09:48:33;;;;;;;5.20;3.30;;;;;;;26.91;41.32;95445.31;5026533;28;20033;-75
2021/09/03 09:50:58;;;;;;;5.60;3.15;;;;;;;26.94;40.87;95445.00;5009383;28;20021;-75
2021/09/03 09:53:26;;;;;;;5.13;3.05;;;;;;;26.95;41.14;95449.22;5025927;28;20033;-75
2021/09/03 09:55:51;;;;;;;4.72;2.97;;;;;;;26.89;41.11;95429.38;5020689;28;20080;-76
2021/09/03 09:58:16;;;;;;;7.40;3.22;;;;;;;26.96;41.13;95439.00;4988896;28;20041;-75
2021/09/03 10:00:42;;;;;;;4.88;3.15;;;;;;;26.96;40.80;95445.19;5026451;28;20745;-75
2021/09/03 10:03:08;;;;;;;5.25;3.10;;;;;;;26.97;41.03;95440.47;5011131;28;20178;-74
2021/09/03 10:05:34;;;;;;;5.25;3.38;;;;;;;26.98;40.92;95439.97;5006861;28;20343;-75
2021/09/03 10:07:59;;;;;;;6.10;3.00;;;;;;;26.98;40.84;95442.69;4997801;28;20026;-75
2021/09/03 10:10:25;;;;;;;5.50;3.47;;;;;;;26.98;40.88;95436.47;4989568;28;20030;-76
2021/09/03 10:12:50;;;;;;;4.75;3.05;;;;;;;27.03;41.10;95425.41;4968917;28;20058;-76
2021/09/03 10:15:17;;;;;;;4.55;3.08;;;;;;;27.01;40.93;95418.97;4986027;28;20046;-75
2021/09/03 10:17:43;;;;;;;5.13;3.00;;;;;;;27.04;40.78;95428.88;5000933;28;20035;-76
2021/09/03 10:20:09;;;;;;;4.68;3.00;;;;;;;27.06;40.59;95421.63;5001736;28;20041;-76
2021/09/03 10:22:42;;;;;;;4.72;2.78;;;;;;;27.07;40.81;95411.38;4997178;28;20845;-75
2021/09/03 10:25:08;;;;;;;4.25;2.50;;;;;;;27.09;40.59;95420.56;4986957;28;20026;-75
2021/09/03 10:27:33;;;;;;;4.32;2.88;;;;;;;27.10;40.45;95415.81;4987159;28;20450;-76
2021/09/03 10:30:15;;;;;;;4.78;2.80;;;;;;;27.13;40.38;95415.53;5005575;28;20022;-75
2021/09/03 10:32:40;;;;;;;4.55;2.85;;;;;;;27.16;40.59;95409.00;5003196;28;20072;-76
2021/09/03 10:35:28;;;;;;;4.55;3.08;;;;;;;27.18;40.42;95400.97;4987033;28;20030;-75
2021/09/03 10:37:54;;;;;;;4.20;2.67;;;;;;;27.17;40.17;95404.97;4986887;28;20469;-76
2021/09/03 10:40:33;;;;;;;4.85;3.00;;;;;;;27.22;40.06;95400.66;5006130;28;20033;-76
2021/09/03 10:42:59;;;;;;;5.57;2.75;;;;;;;27.24;40.08;95399.59;5004968;28;20389;-74
2021/09/03 10:45:49;;;;;;;3.85;2.58;;;;;;;27.26;40.10;95396.34;5006673;28;20434;-75
2021/09/03 10:48:18;;;;;;;5.15;2.80;;;;;;;27.27;40.07;95393.06;4998564;28;20034;-75
2021/09/03 10:50:55;;;;;;;4.85;2.95;;;;;;;27.29;40.12;95381.56;4985337;28;20253;-75
2021/09/03 10:53:28;;;;;;;3.55;2.55;;;;;;;27.29;39.91;95379.59;4985684;28;20026;-74
2021/09/03 10:56:03;;;;;;;4.90;3.00;;;;;;;27.32;40.06;95383.25;4985311;28;20037;-76
2021/09/03 10:58:44;;;;;;;4.55;2.65;;;;;;;27.32;39.96;95384.03;4995073;28;20826;-75
2021/09/03 11:01:15;;;;;;;5.03;2.95;;;;;;;27.30;40.01;95374.84;5006165;28;20038;-75
2021/09/03 11:04:01;;;;;;;4.78;2.92;;;;;;;27.32;39.88;95378.53;4997271;28;20034;-75
2021/09/03 11:06:27;;;;;;;5.20;2.83;;;;;;;27.32;39.93;95375.03;4986484;28;20026;-75
2021/09/03 11:08:52;;;;;;;4.72;3.03;;;;;;;27.37;39.83;95374.22;4984428;28;20033;-75
2021/09/03 11:11:21;;;;;;;4.57;2.80;;;;;;;27.34;39.59;95380.75;4986317;28;20270;-75
2021/09/03 11:13:47;;;;;;;4.75;2.80;;;;;;;27.38;39.92;95370.94;4989301;28;20054;-75
2021/09/03 11:16:43;;;;;;;4.25;2.95;;;;;;;27.40;39.91;95367.69;5004768;28;20029;-75
2021/09/03 11:19:11;;;;;;;5.45;2.80;;;;;;;27.40;39.81;95362.19;5003310;28;20054;-75
2021/09/03 11:21:47;;;;;;;4.57;2.53;;;;;;;27.35;40.03;95349.28;5005261;28;20034;-74
2021/09/03 11:24:13;;;;;;;3.75;2.80;;;;;;;27.41;39.80;95352.69;4988478;28;20044;-75
2021/09/03 11:26:39;;;;;;;4.13;2.88;;;;;;;27.43;39.83;95361.13;5004107;28;20050;-75
2021/09/03 11:29:07;;;;;;;3.95;2.80;;;;;;;27.46;39.59;95365.56;4999536;28;20103;-75
2021/09/03 11:31:35;;;;;;;4.93;2.78;;;;;;;27.47;39.99;95362.28;4995136;28;20022;-75